sensor_id;sensor_type;location;lat;lon;timestamp;pressure;altitude;pressure_sealevel;temperature;humidity
74578;BME280;75151;49.086;33.418;2024-03-02T00:00:51;101200.13;;;-2.20;50.87
74578;BME280;75151;49.086;33.418;2024-03-02T00:03:18;101204.31;;;-2.90;51.60
74578;BME280;75151;49.086;33.418;2024-03-02T00:05:50;101210.09;;;-1.71;49.22
74578;BME280;75151;49.086;33.418;2024-03-02T00:08:25;101217.44;;;-2.66;51.72
74578;BME280;75151;49.086;33.418;2024-03-02T00:10:57;101210.81;;;-2.75;51.69
74578;BME280;75151;49.086;33.418;2024-03-02T00:13:24;101202.38;;;-2.78;51.83
74578;BME280;75151;49.086;33.418;2024-03-02T00:15:55;101194.13;;;-1.72;49.16
74578;BME280;75151;49.086;33.418;2024-03-02T00:18:34;101198.81;;;-2.95;52.58
74578;BME280;75151;49.086;33.418;2024-03-02T00:21:02;101188.00;;;-2.51;51.36
74578;BME280;75151;49.086;33.418;2024-03-02T00:23:30;101185.91;;;-2.77;52.58
74578;BME280;75151;49.086;33.418;2024-03-02T00:25:58;101188.59;;;-2.93;52.60
74578;BME280;75151;49.086;33.418;2024-03-02T00:28:33;101192.34;;;-2.16;50.57
74578;BME280;75151;49.086;33.418;2024-03-02T00:33:46;101202.94;;;-2.76;53.20
74578;BME280;75151;49.086;33.418;2024-03-02T00:36:22;101195.84;;;-2.66;52.59
74578;BME280;75151;49.086;33.418;2024-03-02T00:38:52;101199.72;;;-2.12;50.85
74578;BME280;75151;49.086;33.418;2024-03-02T00:41:31;101204.72;;;-2.37;50.73
74578;BME280;75151;49.086;33.418;2024-03-02T00:46:25;101190.47;;;-2.16;50.20
74578;BME280;75151;49.086;33.418;2024-03-02T00:48:57;101194.72;;;-2.53;51.30
74578;BME280;75151;49.086;33.418;2024-03-02T00:51:26;101187.94;;;-2.22;51.64
74578;BME280;75151;49.086;33.418;2024-03-02T00:53:53;101189.44;;;-1.93;48.75
74578;BME280;75151;49.086;33.418;2024-03-02T00:56:24;101189.88;;;-2.96;51.75
74578;BME280;75151;49.086;33.418;2024-03-02T00:58:51;101184.16;;;-2.55;51.11
74578;BME280;75151;49.086;33.418;2024-03-02T01:01:19;101176.94;;;-2.32;50.30
74578;BME280;75151;49.086;33.418;2024-03-02T01:03:49;101164.31;;;-2.10;49.96
74578;BME280;75151;49.086;33.418;2024-03-02T01:06:17;101165.38;;;-2.61;51.06
74578;BME280;75151;49.086;33.418;2024-03-02T01:08:44;101163.03;;;-2.24;50.83
74578;BME280;75151;49.086;33.418;2024-03-02T01:11:11;101167.91;;;-2.05;49.63
74578;BME280;75151;49.086;33.418;2024-03-02T01:13:38;101171.28;;;-1.98;48.72
74578;BME280;75151;49.086;33.418;2024-03-02T01:16:04;101174.81;;;-1.59;47.88
74578;BME280;75151;49.086;33.418;2024-03-02T01:18:31;101169.44;;;-2.75;50.05
74578;BME280;75151;49.086;33.418;2024-03-02T01:20:58;101170.28;;;-2.08;48.76
74578;BME280;75151;49.086;33.418;2024-03-02T01:23:25;101168.78;;;-1.18;47.40
74578;BME280;75151;49.086;33.418;2024-03-02T01:25:52;101164.34;;;-0.81;45.75
74578;BME280;75151;49.086;33.418;2024-03-02T01:28:19;101153.03;;;-0.99;46.31
74578;BME280;75151;49.086;33.418;2024-03-02T01:30:47;101150.25;;;-1.04;46.33
74578;BME280;75151;49.086;33.418;2024-03-02T01:33:16;101159.25;;;-2.40;48.73
74578;BME280;75151;49.086;33.418;2024-03-02T01:35:43;101150.88;;;-2.22;48.30
74578;BME280;75151;49.086;33.418;2024-03-02T01:38:10;101142.63;;;-1.56;46.93
74578;BME280;75151;49.086;33.418;2024-03-02T01:40:37;101149.59;;;-1.16;47.05
74578;BME280;75151;49.086;33.418;2024-03-02T01:43:05;101145.97;;;-1.00;46.50
74578;BME280;75151;49.086;33.418;2024-03-02T01:45:33;101137.84;;;-2.25;48.95
74578;BME280;75151;49.086;33.418;2024-03-02T01:48:00;101148.41;;;-1.69;47.21
74578;BME280;75151;49.086;33.418;2024-03-02T01:50:28;101154.72;;;-1.63;48.88
74578;BME280;75151;49.086;33.418;2024-03-02T01:52:56;101156.63;;;-2.35;49.17
74578;BME280;75151;49.086;33.418;2024-03-02T01:55:23;101151.47;;;-1.82;47.53
74578;BME280;75151;49.086;33.418;2024-03-02T01:57:50;101160.63;;;-3.15;51.00
74578;BME280;75151;49.086;33.418;2024-03-02T02:00:21;101152.44;;;-2.92;51.45
74578;BME280;75151;49.086;33.418;2024-03-02T02:02:48;101144.34;;;-2.76;50.98
74578;BME280;75151;49.086;33.418;2024-03-02T02:05:16;101147.75;;;-2.14;49.47
74578;BME280;75151;49.086;33.418;2024-03-02T02:07:44;101153.03;;;-3.30;51.54
74578;BME280;75151;49.086;33.418;2024-03-02T02:10:11;101155.91;;;-4.11;53.32
74578;BME280;75151;49.086;33.418;2024-03-02T02:12:37;101151.91;;;-3.34;52.25
74578;BME280;75151;49.086;33.418;2024-03-02T02:15:24;101148.78;;;-3.26;52.17
74578;BME280;75151;49.086;33.418;2024-03-02T02:17:52;101141.56;;;-3.77;53.08
74578;BME280;75151;49.086;33.418;2024-03-02T02:20:19;101142.88;;;-3.11;51.76
74578;BME280;75151;49.086;33.418;2024-03-02T02:23:03;101134.34;;;-4.11;54.51
74578;BME280;75151;49.086;33.418;2024-03-02T02:25:31;101129.66;;;-2.96;52.38
74578;BME280;75151;49.086;33.418;2024-03-02T02:27:57;101141.72;;;-3.83;52.80
74578;BME280;75151;49.086;33.418;2024-03-02T02:30:30;101135.44;;;-3.61;52.51
74578;BME280;75151;49.086;33.418;2024-03-02T02:32:58;101138.75;;;-3.82;53.58
74578;BME280;75151;49.086;33.418;2024-03-02T02:35:25;101132.22;;;-3.18;52.46
74578;BME280;75151;49.086;33.418;2024-03-02T02:37:54;101145.41;;;-3.05;52.54
74578;BME280;75151;49.086;33.418;2024-03-02T02:40:21;101134.75;;;-2.83;50.15
74578;BME280;75151;49.086;33.418;2024-03-02T02:42:48;101138.16;;;-4.30;53.03
74578;BME280;75151;49.086;33.418;2024-03-02T02:45:15;101142.41;;;-3.99;53.79
74578;BME280;75151;49.086;33.418;2024-03-02T02:47:42;101133.25;;;-4.33;55.30
74578;BME280;75151;49.086;33.418;2024-03-02T02:50:11;101139.09;;;-3.78;53.42
74578;BME280;75151;49.086;33.418;2024-03-02T02:52:40;101130.78;;;-4.58;56.04
74578;BME280;75151;49.086;33.418;2024-03-02T02:55:11;101127.72;;;-4.73;55.44
74578;BME280;75151;49.086;33.418;2024-03-02T02:57:40;101125.78;;;-4.95;55.87
74578;BME280;75151;49.086;33.418;2024-03-02T03:00:14;101126.06;;;-3.70;53.28
74578;BME280;75151;49.086;33.418;2024-03-02T03:02:45;101122.34;;;-2.96;51.05
74578;BME280;75151;49.086;33.418;2024-03-02T03:05:13;101123.41;;;-4.28;54.31
74578;BME280;75151;49.086;33.418;2024-03-02T03:07:41;101131.66;;;-3.60;52.22
74578;BME280;75151;49.086;33.418;2024-03-02T03:10:08;101119.97;;;-3.77;52.96
74578;BME280;75151;49.086;33.418;2024-03-02T03:12:36;101125.41;;;-4.00;52.98
74578;BME280;75151;49.086;33.418;2024-03-02T03:15:04;101121.31;;;-3.91;53.18
74578;BME280;75151;49.086;33.418;2024-03-02T03:17:35;101128.50;;;-4.08;54.12
74578;BME280;75151;49.086;33.418;2024-03-02T03:20:02;101124.25;;;-4.27;54.81
74578;BME280;75151;49.086;33.418;2024-03-02T03:22:31;101129.97;;;-3.09;52.54
74578;BME280;75151;49.086;33.418;2024-03-02T03:24:58;101118.72;;;-3.97;53.67
74578;BME280;75151;49.086;33.418;2024-03-02T03:27:26;101122.50;;;-4.10;53.80
74578;BME280;75151;49.086;33.418;2024-03-02T03:29:53;101125.28;;;-4.40;54.18
74578;BME280;75151;49.086;33.418;2024-03-02T03:32:21;101122.50;;;-3.98;55.29
74578;BME280;75151;49.086;33.418;2024-03-02T03:34:48;101111.84;;;-4.16;53.91
74578;BME280;75151;49.086;33.418;2024-03-02T03:37:15;101118.38;;;-4.01;54.50
74578;BME280;75151;49.086;33.418;2024-03-02T03:39:42;101127.69;;;-4.84;55.30
74578;BME280;75151;49.086;33.418;2024-03-02T03:42:09;101130.38;;;-4.84;56.42
74578;BME280;75151;49.086;33.418;2024-03-02T03:44:36;101135.50;;;-4.07;56.66
74578;BME280;75151;49.086;33.418;2024-03-02T03:47:02;101131.41;;;-4.21;53.74
74578;BME280;75151;49.086;33.418;2024-03-02T03:49:29;101124.81;;;-4.02;56.39
74578;BME280;75151;49.086;33.418;2024-03-02T03:51:56;101122.44;;;-4.68;55.77
74578;BME280;75151;49.086;33.418;2024-03-02T03:54:23;101121.72;;;-4.86;57.12
74578;BME280;75151;49.086;33.418;2024-03-02T03:56:50;101127.97;;;-4.74;56.21
74578;BME280;75151;49.086;33.418;2024-03-02T03:59:16;101127.47;;;-4.71;55.50
74578;BME280;75151;49.086;33.418;2024-03-02T04:01:43;101127.91;;;-3.98;55.09
74578;BME280;75151;49.086;33.418;2024-03-02T04:04:10;101133.38;;;-4.40;56.11
74578;BME280;75151;49.086;33.418;2024-03-02T04:06:37;101130.97;;;-4.82;55.76
74578;BME280;75151;49.086;33.418;2024-03-02T04:09:04;101138.41;;;-4.20;54.93
74578;BME280;75151;49.086;33.418;2024-03-02T04:11:31;101136.25;;;-4.64;54.80
74578;BME280;75151;49.086;33.418;2024-03-02T04:13:57;101138.28;;;-4.48;55.83
74578;BME280;75151;49.086;33.418;2024-03-02T04:16:25;101127.19;;;-4.05;54.71
74578;BME280;75151;49.086;33.418;2024-03-02T04:18:51;101139.94;;;-3.89;54.35
74578;BME280;75151;49.086;33.418;2024-03-02T04:21:18;101124.91;;;-4.55;53.93
74578;BME280;75151;49.086;33.418;2024-03-02T04:23:45;101126.94;;;-4.27;54.06
74578;BME280;75151;49.086;33.418;2024-03-02T04:26:12;101125.28;;;-3.82;52.53
74578;BME280;75151;49.086;33.418;2024-03-02T04:28:39;101139.09;;;-4.25;53.09
74578;BME280;75151;49.086;33.418;2024-03-02T04:31:06;101127.50;;;-3.39;51.88
74578;BME280;75151;49.086;33.418;2024-03-02T04:33:33;101126.22;;;-4.34;53.70
74578;BME280;75151;49.086;33.418;2024-03-02T04:35:59;101131.38;;;-3.98;52.33
74578;BME280;75151;49.086;33.418;2024-03-02T04:38:26;101132.31;;;-3.92;52.96
74578;BME280;75151;49.086;33.418;2024-03-02T04:40:54;101135.81;;;-4.73;53.07
74578;BME280;75151;49.086;33.418;2024-03-02T04:43:20;101137.25;;;-4.01;53.44
74578;BME280;75151;49.086;33.418;2024-03-02T04:45:47;101130.69;;;-4.05;52.71
74578;BME280;75151;49.086;33.418;2024-03-02T04:48:14;101132.13;;;-4.02;53.37
74578;BME280;75151;49.086;33.418;2024-03-02T04:50:41;101138.19;;;-4.07;53.13
74578;BME280;75151;49.086;33.418;2024-03-02T04:53:08;101136.78;;;-3.47;52.38
74578;BME280;75151;49.086;33.418;2024-03-02T04:55:35;101127.50;;;-3.79;51.27
74578;BME280;75151;49.086;33.418;2024-03-02T04:58:21;101121.25;;;-3.40;51.37
74578;BME280;75151;49.086;33.418;2024-03-02T05:00:51;101127.19;;;-2.31;49.21
74578;BME280;75151;49.086;33.418;2024-03-02T05:03:18;101134.06;;;-3.35;50.20
74578;BME280;75151;49.086;33.418;2024-03-02T05:05:45;101137.19;;;-1.77;47.04
74578;BME280;75151;49.086;33.418;2024-03-02T05:08:12;101132.44;;;-2.91;48.72
74578;BME280;75151;49.086;33.418;2024-03-02T05:10:39;101142.78;;;-3.16;50.75
74578;BME280;75151;49.086;33.418;2024-03-02T05:13:05;101134.25;;;-2.80;49.28
74578;BME280;75151;49.086;33.418;2024-03-02T05:15:33;101140.19;;;-3.11;50.20
74578;BME280;75151;49.086;33.418;2024-03-02T05:17:59;101137.91;;;-3.03;50.95
74578;BME280;75151;49.086;33.418;2024-03-02T05:20:29;101132.94;;;-2.11;47.94
74578;BME280;75151;49.086;33.418;2024-03-02T05:22:55;101148.50;;;-1.80;47.42
74578;BME280;75151;49.086;33.418;2024-03-02T05:25:22;101145.03;;;-2.14;47.01
74578;BME280;75151;49.086;33.418;2024-03-02T05:27:49;101145.16;;;-3.03;49.75
74578;BME280;75151;49.086;33.418;2024-03-02T05:30:16;101148.47;;;-3.69;50.39
74578;BME280;75151;49.086;33.418;2024-03-02T05:32:43;101147.94;;;-2.70;49.68
74578;BME280;75151;49.086;33.418;2024-03-02T05:35:10;101141.34;;;-2.08;48.23
74578;BME280;75151;49.086;33.418;2024-03-02T05:37:39;101150.81;;;-1.72;46.42
74578;BME280;75151;49.086;33.418;2024-03-02T05:40:06;101143.81;;;-3.85;51.53
74578;BME280;75151;49.086;33.418;2024-03-02T05:42:34;101148.00;;;-2.49;49.42
74578;BME280;75151;49.086;33.418;2024-03-02T05:45:01;101151.06;;;-1.74;46.77
74578;BME280;75151;49.086;33.418;2024-03-02T05:47:28;101148.19;;;-1.84;47.03
74578;BME280;75151;49.086;33.418;2024-03-02T05:49:55;101157.06;;;-3.04;49.62
74578;BME280;75151;49.086;33.418;2024-03-02T05:52:22;101148.34;;;-2.78;49.79
74578;BME280;75151;49.086;33.418;2024-03-02T05:54:48;101141.13;;;-2.23;48.45
74578;BME280;75151;49.086;33.418;2024-03-02T05:57:16;101149.41;;;-1.75;46.95
74578;BME280;75151;49.086;33.418;2024-03-02T06:00:06;101150.06;;;-1.46;46.84
74578;BME280;75151;49.086;33.418;2024-03-02T06:02:34;101146.66;;;-1.36;46.57
74578;BME280;75151;49.086;33.418;2024-03-02T06:05:06;101156.13;;;-0.86;45.94
74578;BME280;75151;49.086;33.418;2024-03-02T06:07:33;101144.75;;;-2.34;47.99
74578;BME280;75151;49.086;33.418;2024-03-02T06:10:00;101152.66;;;-2.11;46.53
74578;BME280;75151;49.086;33.418;2024-03-02T06:12:27;101152.06;;;-2.51;49.07
74578;BME280;75151;49.086;33.418;2024-03-02T06:14:54;101147.84;;;-2.75;47.74
74578;BME280;75151;49.086;33.418;2024-03-02T06:17:20;101150.63;;;-2.04;48.22
74578;BME280;75151;49.086;33.418;2024-03-02T06:19:47;101140.09;;;-1.40;46.99
74578;BME280;75151;49.086;33.418;2024-03-02T06:22:14;101137.22;;;-1.56;46.32
74578;BME280;75151;49.086;33.418;2024-03-02T06:24:41;101144.72;;;-2.84;49.80
74578;BME280;75151;49.086;33.418;2024-03-02T06:27:07;101149.38;;;-1.96;49.24
74578;BME280;75151;49.086;33.418;2024-03-02T06:29:34;101150.63;;;-1.22;47.27
74578;BME280;75151;49.086;33.418;2024-03-02T06:32:01;101150.34;;;-1.21;47.34
74578;BME280;75151;49.086;33.418;2024-03-02T06:34:28;101141.13;;;-0.67;45.19
74578;BME280;75151;49.086;33.418;2024-03-02T06:36:55;101134.72;;;-1.14;46.89
74578;BME280;75151;49.086;33.418;2024-03-02T06:39:22;101138.22;;;-0.92;45.95
74578;BME280;75151;49.086;33.418;2024-03-02T06:41:49;101130.97;;;-0.13;42.96
74578;BME280;75151;49.086;33.418;2024-03-02T06:44:16;101140.38;;;-0.62;46.96
74578;BME280;75151;49.086;33.418;2024-03-02T06:46:43;101136.16;;;-1.93;48.26
74578;BME280;75151;49.086;33.418;2024-03-02T06:49:09;101138.81;;;-1.98;48.60
74578;BME280;75151;49.086;33.418;2024-03-02T06:51:39;101141.25;;;-1.58;47.63
74578;BME280;75151;49.086;33.418;2024-03-02T06:54:06;101145.97;;;-1.00;46.54
74578;BME280;75151;49.086;33.418;2024-03-02T06:56:33;101133.66;;;-0.86;46.14
74578;BME280;75151;49.086;33.418;2024-03-02T06:59:00;101126.25;;;-0.64;46.67
74578;BME280;75151;49.086;33.418;2024-03-02T07:01:26;101134.19;;;-1.59;48.42
74578;BME280;75151;49.086;33.418;2024-03-02T07:03:54;101128.13;;;-1.45;47.96
74578;BME280;75151;49.086;33.418;2024-03-02T07:06:21;101123.22;;;0.06;46.30
74578;BME280;75151;49.086;33.418;2024-03-02T07:08:48;101122.59;;;-0.80;46.32
74578;BME280;75151;49.086;33.418;2024-03-02T07:11:15;101114.97;;;-0.51;46.60
74578;BME280;75151;49.086;33.418;2024-03-02T07:13:42;101121.56;;;-1.00;46.65
74578;BME280;75151;49.086;33.418;2024-03-02T07:16:08;101125.81;;;-0.51;46.67
74578;BME280;75151;49.086;33.418;2024-03-02T07:18:55;101120.66;;;-1.97;49.42
74578;BME280;75151;49.086;33.418;2024-03-02T07:21:23;101106.31;;;-0.80;48.18
74578;BME280;75151;49.086;33.418;2024-03-02T07:23:50;101115.91;;;-0.35;45.13
74578;BME280;75151;49.086;33.418;2024-03-02T07:26:17;101106.66;;;-0.34;46.78
74578;BME280;75151;49.086;33.418;2024-03-02T07:28:49;101109.03;;;0.51;44.59
74578;BME280;75151;49.086;33.418;2024-03-02T07:31:17;101105.81;;;0.64;43.13
74578;BME280;75151;49.086;33.418;2024-03-02T07:33:44;101094.16;;;0.63;45.90
74578;BME280;75151;49.086;33.418;2024-03-02T07:36:13;101096.50;;;0.34;44.39
74578;BME280;75151;49.086;33.418;2024-03-02T07:38:40;101098.81;;;-0.31;45.96
74578;BME280;75151;49.086;33.418;2024-03-02T07:41:08;101098.97;;;-0.84;47.00
74578;BME280;75151;49.086;33.418;2024-03-02T07:43:35;101095.06;;;0.22;44.70
74578;BME280;75151;49.086;33.418;2024-03-02T07:46:02;101086.91;;;-0.67;46.83
74578;BME280;75151;49.086;33.418;2024-03-02T07:48:29;101092.59;;;0.10;44.86
74578;BME280;75151;49.086;33.418;2024-03-02T07:50:57;101075.53;;;-0.95;48.24
74578;BME280;75151;49.086;33.418;2024-03-02T07:53:24;101079.88;;;-0.26;47.59
74578;BME280;75151;49.086;33.418;2024-03-02T07:55:51;101082.16;;;-0.08;45.68
74578;BME280;75151;49.086;33.418;2024-03-02T07:58:18;101087.88;;;0.53;45.84
74578;BME280;75151;49.086;33.418;2024-03-02T08:00:46;101083.47;;;-0.15;46.20
74578;BME280;75151;49.086;33.418;2024-03-02T08:03:14;101075.47;;;-0.37;47.92
74578;BME280;75151;49.086;33.418;2024-03-02T08:05:41;101070.94;;;-0.21;45.87
74578;BME280;75151;49.086;33.418;2024-03-02T08:08:10;101063.84;;;-1.01;48.94
74578;BME280;75151;49.086;33.418;2024-03-02T08:10:38;101064.53;;;-0.52;48.38
74578;BME280;75151;49.086;33.418;2024-03-02T08:13:05;101062.06;;;0.55;46.79
74578;BME280;75151;49.086;33.418;2024-03-02T08:15:32;101055.03;;;1.80;42.95
74578;BME280;75151;49.086;33.418;2024-03-02T08:17:59;101057.00;;;1.29;43.16
74578;BME280;75151;49.086;33.418;2024-03-02T08:20:26;101055.34;;;1.13;43.32
74578;BME280;75151;49.086;33.418;2024-03-02T08:22:53;101054.91;;;2.15;41.48
74578;BME280;75151;49.086;33.418;2024-03-02T08:25:21;101053.25;;;2.73;41.17
74578;BME280;75151;49.086;33.418;2024-03-02T08:27:49;101051.81;;;0.05;44.82
74578;BME280;75151;49.086;33.418;2024-03-02T08:30:16;101047.19;;;1.23;43.55
74578;BME280;75151;49.086;33.418;2024-03-02T08:32:43;101046.28;;;1.98;41.65
74578;BME280;75151;49.086;33.418;2024-03-02T08:35:09;101046.19;;;0.17;46.02
74578;BME280;75151;49.086;33.418;2024-03-02T08:37:39;101037.94;;;0.89;45.31
74578;BME280;75151;49.086;33.418;2024-03-02T08:40:07;101037.81;;;0.23;45.29
74578;BME280;75151;49.086;33.418;2024-03-02T08:42:34;101036.88;;;0.75;45.96
74578;BME280;75151;49.086;33.418;2024-03-02T08:45:01;101031.28;;;0.24;46.02
74578;BME280;75151;49.086;33.418;2024-03-02T08:47:28;101027.00;;;1.64;42.43
74578;BME280;75151;49.086;33.418;2024-03-02T08:49:55;101020.28;;;0.96;43.96
74578;BME280;75151;49.086;33.418;2024-03-02T08:52:26;101031.66;;;0.53;44.07
74578;BME280;75151;49.086;33.418;2024-03-02T08:54:52;101023.09;;;2.00;42.80
74578;BME280;75151;49.086;33.418;2024-03-02T08:57:19;101022.94;;;3.18;39.65
74578;BME280;75151;49.086;33.418;2024-03-02T08:59:46;101017.75;;;1.80;41.82
74578;BME280;75151;49.086;33.418;2024-03-02T09:02:13;101021.22;;;2.55;41.56
74578;BME280;75151;49.086;33.418;2024-03-02T09:04:40;101021.81;;;2.42;42.15
74578;BME280;75151;49.086;33.418;2024-03-02T09:07:07;101027.63;;;2.30;42.41
74578;BME280;75151;49.086;33.418;2024-03-02T09:09:34;101015.06;;;1.50;44.65
74578;BME280;75151;49.086;33.418;2024-03-02T09:12:01;101012.88;;;3.13;40.91
74578;BME280;75151;49.086;33.418;2024-03-02T09:14:28;101013.22;;;3.07;40.67
74578;BME280;75151;49.086;33.418;2024-03-02T09:16:55;101007.03;;;2.91;40.61
74578;BME280;75151;49.086;33.418;2024-03-02T09:19:22;100997.81;;;3.21;41.06
74578;BME280;75151;49.086;33.418;2024-03-02T09:21:49;101009.75;;;2.58;41.60
74578;BME280;75151;49.086;33.418;2024-03-02T09:24:16;101006.38;;;3.90;38.89
74578;BME280;75151;49.086;33.418;2024-03-02T09:26:44;100997.88;;;2.39;41.89
74578;BME280;75151;49.086;33.418;2024-03-02T09:29:11;101010.19;;;3.89;39.13
74578;BME280;75151;49.086;33.418;2024-03-02T09:31:41;100993.75;;;4.74;38.31
74578;BME280;75151;49.086;33.418;2024-03-02T09:34:08;100993.44;;;3.72;40.22
74578;BME280;75151;49.086;33.418;2024-03-02T09:36:35;100992.47;;;3.11;40.26
74578;BME280;75151;49.086;33.418;2024-03-02T09:39:02;100988.72;;;5.13;36.34
74578;BME280;75151;49.086;33.418;2024-03-02T09:41:30;100994.13;;;4.06;39.06
74578;BME280;75151;49.086;33.418;2024-03-02T09:43:59;100996.47;;;4.92;38.60
74578;BME280;75151;49.086;33.418;2024-03-02T09:46:27;100988.41;;;6.01;35.53
74578;BME280;75151;49.086;33.418;2024-03-02T09:48:54;100985.41;;;6.87;34.51
74578;BME280;75151;49.086;33.418;2024-03-02T09:51:21;100979.81;;;3.20;39.72
74578;BME280;75151;49.086;33.418;2024-03-02T09:53:48;100977.00;;;4.01;38.25
74578;BME280;75151;49.086;33.418;2024-03-02T09:56:15;100979.38;;;4.07;38.34
74578;BME280;75151;49.086;33.418;2024-03-02T09:58:42;100979.72;;;3.59;39.84
74578;BME280;75151;49.086;33.418;2024-03-02T10:01:10;100978.41;;;3.98;38.36
74578;BME280;75151;49.086;33.418;2024-03-02T10:03:38;100973.88;;;3.89;38.89
74578;BME280;75151;49.086;33.418;2024-03-02T10:06:25;100971.81;;;3.99;39.67
74578;BME280;75151;49.086;33.418;2024-03-02T10:08:53;100970.19;;;4.41;38.17
74578;BME280;75151;49.086;33.418;2024-03-02T10:11:30;100970.81;;;5.80;35.36
74578;BME280;75151;49.086;33.418;2024-03-02T10:14:18;100971.63;;;5.67;35.79
74578;BME280;75151;49.086;33.418;2024-03-02T10:16:45;100971.75;;;6.25;35.08
74578;BME280;75151;49.086;33.418;2024-03-02T10:19:19;100959.03;;;5.20;36.96
74578;BME280;75151;49.086;33.418;2024-03-02T10:21:50;100954.09;;;4.90;38.31
74578;BME280;75151;49.086;33.418;2024-03-02T10:24:19;100965.41;;;6.38;35.39
74578;BME280;75151;49.086;33.418;2024-03-02T10:26:46;100951.28;;;5.27;37.51
74578;BME280;75151;49.086;33.418;2024-03-02T10:29:13;100952.72;;;5.92;35.23
74578;BME280;75151;49.086;33.418;2024-03-02T10:31:43;100945.81;;;5.95;35.28
74578;BME280;75151;49.086;33.418;2024-03-02T10:34:10;100952.22;;;5.77;36.53
74578;BME280;75151;49.086;33.418;2024-03-02T10:36:40;100943.78;;;5.87;35.28
74578;BME280;75151;49.086;33.418;2024-03-02T10:39:08;100947.59;;;6.62;34.73
74578;BME280;75151;49.086;33.418;2024-03-02T10:41:37;100958.72;;;5.94;34.92
74578;BME280;75151;49.086;33.418;2024-03-02T10:44:07;100945.22;;;6.69;33.97
74578;BME280;75151;49.086;33.418;2024-03-02T10:46:38;100947.69;;;7.24;33.54
74578;BME280;75151;49.086;33.418;2024-03-02T10:49:05;100944.34;;;6.60;34.55
74578;BME280;75151;49.086;33.418;2024-03-02T10:51:34;100945.19;;;5.98;35.39
74578;BME280;75151;49.086;33.418;2024-03-02T10:54:04;100938.13;;;5.70;35.80
74578;BME280;75151;49.086;33.418;2024-03-02T10:56:32;100933.00;;;6.75;34.69
74578;BME280;75151;49.086;33.418;2024-03-02T10:59:03;100934.41;;;6.15;34.93
74578;BME280;75151;49.086;33.418;2024-03-02T11:01:33;100933.66;;;6.72;34.23
74578;BME280;75151;49.086;33.418;2024-03-02T11:04:02;100924.03;;;7.45;33.28
74578;BME280;75151;49.086;33.418;2024-03-02T11:06:32;100915.25;;;7.73;32.44
74578;BME280;75151;49.086;33.418;2024-03-02T11:09:02;100919.09;;;7.55;32.74
74578;BME280;75151;49.086;33.418;2024-03-02T11:11:36;100908.53;;;8.91;30.56
74578;BME280;75151;49.086;33.418;2024-03-02T11:14:06;100903.72;;;7.15;33.35
74578;BME280;75151;49.086;33.418;2024-03-02T11:16:36;100902.50;;;6.99;33.11
74578;BME280;75151;49.086;33.418;2024-03-02T11:19:10;100905.09;;;7.04;33.98
74578;BME280;75151;49.086;33.418;2024-03-02T11:21:42;100899.63;;;7.04;33.27
74578;BME280;75151;49.086;33.418;2024-03-02T11:26:45;100901.78;;;8.37;31.53
74578;BME280;75151;49.086;33.418;2024-03-02T11:32:03;100905.84;;;8.48;31.60
74578;BME280;75151;49.086;33.418;2024-03-02T11:34:35;100883.50;;;9.21;30.70
74578;BME280;75151;49.086;33.418;2024-03-02T11:37:02;100883.31;;;9.35;29.85
74578;BME280;75151;49.086;33.418;2024-03-02T11:39:30;100885.59;;;8.18;31.48
74578;BME280;75151;49.086;33.418;2024-03-02T11:41:57;100883.72;;;9.54;29.41
74578;BME280;75151;49.086;33.418;2024-03-02T11:44:26;100883.66;;;10.86;28.20
74578;BME280;75151;49.086;33.418;2024-03-02T11:47:05;100882.91;;;9.83;29.36
74578;BME280;75151;49.086;33.418;2024-03-02T11:49:41;100877.81;;;6.99;32.92
74578;BME280;75151;49.086;33.418;2024-03-02T11:52:10;100870.56;;;6.72;33.52
74578;BME280;75151;49.086;33.418;2024-03-02T11:54:39;100869.09;;;6.75;33.55
74578;BME280;75151;49.086;33.418;2024-03-02T11:57:09;100874.81;;;6.21;33.67
74578;BME280;75151;49.086;33.418;2024-03-02T11:59:35;100874.63;;;6.17;34.71
74578;BME280;75151;49.086;33.418;2024-03-02T12:02:02;100864.59;;;8.48;31.04
74578;BME280;75151;49.086;33.418;2024-03-02T12:04:29;100868.94;;;9.58;29.98
74578;BME280;75151;49.086;33.418;2024-03-02T12:07:01;100872.81;;;8.73;29.94
74578;BME280;75151;49.086;33.418;2024-03-02T12:09:29;100872.81;;;8.65;30.88
74578;BME280;75151;49.086;33.418;2024-03-02T12:12:06;100870.75;;;9.08;30.09
74578;BME280;75151;49.086;33.418;2024-03-02T12:14:35;100875.13;;;10.05;29.22
74578;BME280;75151;49.086;33.418;2024-03-02T12:17:05;100869.22;;;8.90;30.00
74578;BME280;75151;49.086;33.418;2024-03-02T12:19:32;100867.13;;;9.33;30.13
74578;BME280;75151;49.086;33.418;2024-03-02T12:22:00;100868.44;;;10.68;27.94
74578;BME280;75151;49.086;33.418;2024-03-02T12:24:28;100875.31;;;10.62;28.22
74578;BME280;75151;49.086;33.418;2024-03-02T12:26:56;100861.28;;;10.55;27.30
74578;BME280;75151;49.086;33.418;2024-03-02T12:29:23;100859.94;;;11.18;27.37
74578;BME280;75151;49.086;33.418;2024-03-02T12:31:53;100854.97;;;9.63;28.30
74578;BME280;75151;49.086;33.418;2024-03-02T12:34:21;100855.16;;;10.29;28.37
74578;BME280;75151;49.086;33.418;2024-03-02T12:36:49;100860.00;;;9.91;28.54
74578;BME280;75151;49.086;33.418;2024-03-02T12:39:20;100855.94;;;11.51;26.87
74578;BME280;75151;49.086;33.418;2024-03-02T12:41:48;100857.88;;;11.27;26.48
74578;BME280;75151;49.086;33.418;2024-03-02T12:44:18;100860.31;;;9.39;28.73
74578;BME280;75151;49.086;33.418;2024-03-02T12:46:46;100861.97;;;9.32;29.24
74578;BME280;75151;49.086;33.418;2024-03-02T12:49:14;100855.28;;;9.33;29.13
74578;BME280;75151;49.086;33.418;2024-03-02T12:51:44;100855.44;;;9.36;28.54
74578;BME280;75151;49.086;33.418;2024-03-02T12:54:14;100851.63;;;11.90;26.41
74578;BME280;75151;49.086;33.418;2024-03-02T12:56:41;100859.38;;;11.61;26.53
74578;BME280;75151;49.086;33.418;2024-03-02T12:59:23;100856.28;;;10.07;27.91